Time;durP1;ratioP1;P1;durP2;ratioP2;P2;SDS_P1;SDS_P2;PMS_P1;PMS_P2;Temp;Humidity;BMP_temperature;BMP_pressure;BME280_temperature;BME280_humidity;BME280_pressure;Samples;Min_cycle;Max_cycle;Signal;HPM_P1;HPM_P2
2022/03/19 00:00:12;;;;;;;;;;;15.60;66.40;;;;;;5292395;28;19931;-29
2022/03/19 00:03:02;;;;;;;;;;;15.60;66.40;;;;;;5293205;28;19924;-32
2022/03/19 00:05:34;;;;;;;;;;;15.60;66.60;;;;;;5293270;28;19931;-29
2022/03/19 00:08:05;;;;;;;;;;;15.60;66.70;;;;;;5293169;28;19931;-28
2022/03/19 00:10:36;;;;;;;;;;;15.60;66.80;;;;;;5293456;28;20364;-34
2022/03/19 00:13:07;;;;;;;;;;;15.60;66.90;;;;;;5293043;28;19938;-31
2022/03/19 00:15:38;;;;;;;;;;;15.60;67.10;;;;;;5293296;28;19928;-32
2022/03/19 00:18:09;;;;;;;;;;;15.60;67.40;;;;;;5293204;28;20331;-30
2022/03/19 00:20:40;;;;;;;;;;;15.50;67.60;;;;;;5293087;28;19924;-36
2022/03/19 00:23:12;;;;;;;;;;;15.50;67.60;;;;;;5293551;28;19924;-30
2022/03/19 00:25:46;;;;;;;;;;;15.50;67.90;;;;;;5293162;28;20284;-31
2022/03/19 00:28:18;;;;;;;;;;;15.50;68.00;;;;;;5291887;28;20411;-30
2022/03/19 00:30:49;;;;;;;;;;;15.50;68.30;;;;;;5292679;27;19954;-30
2022/03/19 00:33:21;;;;;;;;;;;15.50;68.20;;;;;;5291637;28;20056;-29
2022/03/19 00:35:52;;;;;;;;;;;15.50;68.30;;;;;;5292612;28;19931;-29
2022/03/19 00:38:23;;;;;;;;;;;15.40;68.30;;;;;;5293105;27;19951;-29
2022/03/19 00:40:54;;;;;;;;;;;15.40;68.60;;;;;;5292797;28;19973;-34
2022/03/19 00:43:25;;;;;;;;;;;15.40;68.80;;;;;;5292752;28;20199;-30
2022/03/19 00:45:56;;;;;;;;;;;15.40;68.90;;;;;;5292576;28;19928;-37
2022/03/19 00:48:27;;;;;;;;;;;15.40;69.00;;;;;;5292553;28;20426;-32
2022/03/19 00:50:58;;;;;;;;;;;15.40;69.00;;;;;;5291216;28;19924;-29
2022/03/19 00:53:29;;;;;;;;;;;15.40;69.20;;;;;;5292612;28;19924;-36
2022/03/19 00:56:00;;;;;;;;;;;15.40;69.20;;;;;;5292407;28;19977;-31
2022/03/19 00:58:31;;;;;;;;;;;15.30;69.10;;;;;;5292253;28;19976;-33
2022/03/19 01:01:02;;;;;;;;;;;15.40;69.40;;;;;;5292348;28;19924;-29
2022/03/19 01:03:33;;;;;;;;;;;15.30;69.20;;;;;;5291831;28;19923;-28
2022/03/19 01:06:03;;;;;;;;;;;15.40;69.40;;;;;;5292044;28;19924;-31
2022/03/19 01:08:34;;;;;;;;;;;15.30;69.70;;;;;;5292520;28;19924;-30
2022/03/19 01:11:05;;;;;;;;;;;15.30;69.70;;;;;;5291927;28;19934;-35
2022/03/19 01:13:36;;;;;;;;;;;15.30;69.70;;;;;;5292303;28;19928;-34
2022/03/19 01:16:07;;;;;;;;;;;15.30;69.70;;;;;;5292368;28;20293;-29
2022/03/19 01:18:39;;;;;;;;;;;15.20;69.70;;;;;;5292207;28;20254;-32
2022/03/19 01:21:10;;;;;;;;;;;15.20;69.80;;;;;;5291937;28;20258;-33
2022/03/19 01:23:41;;;;;;;;;;;15.30;70.00;;;;;;5291888;28;19938;-31
2022/03/19 01:26:12;;;;;;;;;;;15.30;70.40;;;;;;5291936;28;19923;-29
2022/03/19 01:28:43;;;;;;;;;;;15.20;70.20;;;;;;5291911;28;19923;-30
2022/03/19 01:31:14;;;;;;;;;;;15.20;70.40;;;;;;5291697;28;20381;-32
2022/03/19 01:33:45;;;;;;;;;;;15.20;70.50;;;;;;5291969;28;20380;-32
2022/03/19 01:36:17;;;;;;;;;;;15.20;70.80;;;;;;5292184;28;19928;-33
2022/03/19 01:38:48;;;;;;;;;;;15.20;70.90;;;;;;5291652;28;19966;-30
2022/03/19 01:41:19;;;;;;;;;;;15.20;71.00;;;;;;5291601;28;19963;-29
2022/03/19 01:43:50;;;;;;;;;;;15.20;71.20;;;;;;5291093;28;19924;-30
2022/03/19 01:46:21;;;;;;;;;;;15.20;71.30;;;;;;5291774;28;19928;-28
2022/03/19 01:48:52;;;;;;;;;;;15.20;71.20;;;;;;5291706;28;19930;-29
2022/03/19 01:51:22;;;;;;;;;;;15.20;71.20;;;;;;5291396;28;19949;-32
2022/03/19 01:53:54;;;;;;;;;;;15.10;71.20;;;;;;5291436;28;19985;-36
2022/03/19 01:56:26;;;;;;;;;;;15.10;71.20;;;;;;5291301;28;19923;-31
2022/03/19 01:58:57;;;;;;;;;;;15.10;71.10;;;;;;5291274;28;20006;-30
2022/03/19 02:01:27;;;;;;;;;;;15.10;71.00;;;;;;5290219;28;20022;-38
2022/03/19 02:03:58;;;;;;;;;;;15.10;70.90;;;;;;5291326;28;19924;-30
2022/03/19 02:06:29;;;;;;;;;;;15.10;70.70;;;;;;5290096;28;19966;-29
2022/03/19 02:09:00;;;;;;;;;;;15.10;70.70;;;;;;5291122;28;19927;-29
2022/03/19 02:11:31;;;;;;;;;;;15.00;70.60;;;;;;5290153;28;20396;-29
2022/03/19 02:14:02;;;;;;;;;;;15.10;70.60;;;;;;5290822;28;19924;-38
2022/03/19 02:16:33;;;;;;;;;;;15.00;70.70;;;;;;5291321;28;20354;-31
2022/03/19 02:19:04;;;;;;;;;;;15.00;70.80;;;;;;5291130;28;20381;-31
2022/03/19 02:21:42;;;;;;;;;;;15.10;70.90;;;;;;5291007;28;19996;-30
2022/03/19 02:27:02;;;;;;;;;;;15.00;71.00;;;;;;5291356;28;20028;-29
2022/03/19 02:29:33;;;;;;;;;;;15.00;71.20;;;;;;5291143;28;20017;-30
2022/03/19 02:32:04;;;;;;;;;;;15.00;71.20;;;;;;5290696;28;19925;-31
2022/03/19 02:34:36;;;;;;;;;;;15.00;71.20;;;;;;5289810;28;19928;-39
2022/03/19 02:37:07;;;;;;;;;;;15.00;71.20;;;;;;5290868;28;19969;-30
2022/03/19 02:39:38;;;;;;;;;;;15.00;71.20;;;;;;5290904;28;19928;-30
2022/03/19 02:42:09;;;;;;;;;;;15.00;71.10;;;;;;5290762;28;19931;-30
2022/03/19 02:44:40;;;;;;;;;;;15.00;71.10;;;;;;5290937;28;20005;-32
2022/03/19 02:47:11;;;;;;;;;;;15.00;71.30;;;;;;5291054;28;19976;-31
2022/03/19 02:49:42;;;;;;;;;;;15.00;71.00;;;;;;5290643;28;20381;-30
2022/03/19 02:52:13;;;;;;;;;;;15.00;70.90;;;;;;5290702;28;19931;-29
2022/03/19 02:54:45;;;;;;;;;;;15.00;70.70;;;;;;5272814;28;20277;-32
2022/03/19 02:57:15;;;;;;;;;;;14.90;70.50;;;;;;5291143;28;19927;-28
2022/03/19 02:59:46;;;;;;;;;;;14.90;70.60;;;;;;5290384;28;20281;-30
2022/03/19 03:02:17;;;;;;;;;;;14.90;70.60;;;;;;5290823;28;20037;-29
2022/03/19 03:04:48;;;;;;;;;;;14.90;70.80;;;;;;5290588;28;20303;-33
2022/03/19 03:07:19;;;;;;;;;;;14.90;71.20;;;;;;5290601;28;20023;-37
2022/03/19 03:09:50;;;;;;;;;;;14.90;71.10;;;;;;5290469;28;19931;-31
2022/03/19 03:12:21;;;;;;;;;;;14.90;71.10;;;;;;5290871;28;20293;-30
2022/03/19 03:14:52;;;;;;;;;;;14.90;71.20;;;;;;5290324;28;19951;-31
2022/03/19 03:17:22;;;;;;;;;;;14.90;70.80;;;;;;5290556;28;19958;-31
2022/03/19 03:19:54;;;;;;;;;;;14.90;70.70;;;;;;5290450;28;19931;-29
2022/03/19 03:22:24;;;;;;;;;;;14.90;70.80;;;;;;5290595;28;19982;-28
2022/03/19 03:24:55;;;;;;;;;;;14.90;70.80;;;;;;5290373;28;19928;-29
2022/03/19 03:27:26;;;;;;;;;;;14.80;70.60;;;;;;5293689;28;19923;-30
2022/03/19 03:29:57;;;;;;;;;;;14.90;70.50;;;;;;5294031;28;19946;-36
2022/03/19 03:32:28;;;;;;;;;;;14.90;70.60;;;;;;5294302;28;20044;-31
2022/03/19 03:34:59;;;;;;;;;;;14.80;70.60;;;;;;5293847;28;19931;-29
2022/03/19 03:37:30;;;;;;;;;;;14.90;70.70;;;;;;5294393;28;19923;-34
2022/03/19 03:40:01;;;;;;;;;;;14.80;70.70;;;;;;5293834;28;19930;-29
2022/03/19 03:42:32;;;;;;;;;;;14.80;70.60;;;;;;5294310;28;19923;-31
2022/03/19 03:45:03;;;;;;;;;;;14.80;70.60;;;;;;5293410;28;19976;-29
2022/03/19 03:47:34;;;;;;;;;;;14.80;70.60;;;;;;5293817;28;19924;-29
2022/03/19 03:50:05;;;;;;;;;;;14.80;70.60;;;;;;5293836;28;19923;-30
2022/03/19 03:52:36;;;;;;;;;;;14.80;70.80;;;;;;5293435;28;19967;-29
2022/03/19 03:55:07;;;;;;;;;;;14.80;71.00;;;;;;5275698;28;19923;-30
2022/03/19 03:57:38;;;;;;;;;;;14.80;71.00;;;;;;5293523;28;19924;-30
2022/03/19 04:00:10;;;;;;;;;;;14.80;71.10;;;;;;5293577;28;19924;-30
2022/03/19 04:02:40;;;;;;;;;;;14.80;71.00;;;;;;5280169;27;19923;-29
2022/03/19 04:05:11;;;;;;;;;;;14.80;71.20;;;;;;5282802;28;19924;-35
2022/03/19 04:07:42;;;;;;;;;;;14.80;71.20;;;;;;5278777;28;19928;-31
2022/03/19 04:10:13;;;;;;;;;;;14.80;71.20;;;;;;5269407;28;20423;-29
2022/03/19 04:12:44;;;;;;;;;;;14.80;71.00;;;;;;5273796;28;19931;-35
2022/03/19 04:15:18;;;;;;;;;;;14.80;67.40;;;;;;5276173;28;19928;-38
2022/03/19 04:17:48;;;;;;;;;;;14.70;66.60;;;;;;5276095;28;19924;-29
2022/03/19 04:20:22;;;;;;;;;;;14.70;66.60;;;;;;5290694;28;19923;-29
2022/03/19 04:22:53;;;;;;;;;;;14.70;66.50;;;;;;5290965;28;19927;-29
2022/03/19 04:25:25;;;;;;;;;;;14.70;66.20;;;;;;5290915;28;19935;-34
2022/03/19 04:27:56;;;;;;;;;;;14.80;65.90;;;;;;5290669;28;20000;-30
2022/03/19 04:30:27;;;;;;;;;;;14.80;65.70;;;;;;5280164;28;19928;-37
2022/03/19 04:32:59;;;;;;;;;;;14.80;65.60;;;;;;5285373;28;20369;-28
2022/03/19 04:38:20;;;;;;;;;;;14.90;65.30;;;;;;5268865;28;20336;-28
2022/03/19 04:40:51;;;;;;;;;;;14.90;65.20;;;;;;5269380;28;20377;-29
2022/03/19 04:43:23;;;;;;;;;;;14.90;65.10;;;;;;5268735;28;20301;-30
2022/03/19 04:45:54;;;;;;;;;;;14.90;65.10;;;;;;5269000;28;20408;-34
2022/03/19 04:48:27;;;;;;;;;;;14.90;65.10;;;;;;5268996;28;19924;-29
2022/03/19 04:50:58;;;;;;;;;;;14.90;65.20;;;;;;5268675;28;19933;-36
2022/03/19 04:53:29;;;;;;;;;;;15.00;65.30;;;;;;5268667;28;20290;-30
2022/03/19 04:56:00;;;;;;;;;;;15.00;65.20;;;;;;5269040;28;19927;-35
2022/03/19 04:58:31;;;;;;;;;;;15.00;65.20;;;;;;5272271;28;19931;-29
2022/03/19 05:01:02;;;;;;;;;;;15.00;65.20;;;;;;5290017;28;19966;-29
2022/03/19 05:03:34;;;;;;;;;;;15.00;65.30;;;;;;5289974;28;19963;-34
2022/03/19 05:06:05;;;;;;;;;;;15.00;65.30;;;;;;5289896;28;19969;-29
2022/03/19 05:08:36;;;;;;;;;;;15.00;65.30;;;;;;5289690;28;20352;-31
2022/03/19 05:11:13;;;;;;;;;;;15.00;65.40;;;;;;5290036;28;19928;-33
2022/03/19 05:13:44;;;;;;;;;;;15.00;65.40;;;;;;5289948;28;19983;-29
2022/03/19 05:16:15;;;;;;;;;;;15.00;65.40;;;;;;5289874;28;19974;-29
2022/03/19 05:18:46;;;;;;;;;;;15.00;65.40;;;;;;5275215;28;20377;-32
2022/03/19 05:21:17;;;;;;;;;;;15.00;65.40;;;;;;5289545;28;19930;-29
2022/03/19 05:23:48;;;;;;;;;;;15.00;65.40;;;;;;5289538;28;19930;-30
2022/03/19 05:26:19;;;;;;;;;;;15.00;65.60;;;;;;5287244;28;20014;-30
2022/03/19 05:28:50;;;;;;;;;;;15.00;65.60;;;;;;5268030;28;20015;-32
2022/03/19 05:31:21;;;;;;;;;;;14.70;66.60;;;;;;5267574;28;20281;-31
2022/03/19 05:36:42;;;;;;;66.70;50.83;;;13.00;69.70;;;;;;5267571;28;20012;-36
2022/03/19 05:39:13;;;;;;;63.67;49.60;;;12.50;70.50;;;;;;5267632;28;20507;-33
2022/03/19 05:41:44;;;;;;;;;;;12.20;71.40;;;;;;5268059;28;20426;-30
2022/03/19 05:44:15;;;;;;;;;;;12.00;71.80;;;;;;5266687;28;19963;-33
2022/03/19 05:46:46;;;;;;;;;;;11.90;72.10;;;;;;5268116;28;19929;-36
2022/03/19 05:49:17;;;;;;;;;;;11.80;72.30;;;;;;5267019;28;20292;-32
2022/03/19 05:51:48;;;;;;;;;;;11.70;72.40;;;;;;5267840;28;19955;-34
2022/03/19 05:54:18;;;;;;;;;;;11.60;72.60;;;;;;5267728;28;19974;-36
2022/03/19 05:56:50;;;;;;;53.83;42.37;;;11.50;72.30;;;;;;5267350;28;19920;-36
2022/03/19 05:59:21;;;;;;;53.10;42.53;;;11.50;72.10;;;;;;5277755;28;20044;-31
2022/03/19 06:01:52;;;;;;;52.37;41.23;;;11.40;72.10;;;;;;5288284;28;20055;-31
2022/03/19 06:04:23;;;;;;;48.77;38.73;;;11.40;72.60;;;;;;5288469;28;20089;-31
2022/03/19 06:06:55;;;;;;;53.77;38.87;;;11.40;72.50;;;;;;5288110;28;20048;-32
2022/03/19 06:09:25;;;;;;;51.47;39.37;;;11.40;72.00;;;;;;5288539;28;20042;-28
2022/03/19 06:11:57;;;;;;;49.90;39.27;;;11.30;72.10;;;;;;5288099;28;20126;-31
2022/03/19 06:14:27;;;;;;;48.77;38.77;;;11.30;72.30;;;;;;5274580;28;20111;-33
2022/03/19 06:16:58;;;;;;;51.07;36.80;;;11.30;71.80;;;;;;5266396;28;20117;-31
2022/03/19 06:19:29;;;;;;;;;;;11.50;72.00;;;;;;5267510;28;20078;-31
2022/03/19 06:22:00;;;;;;;46.80;35.57;;;11.80;71.30;;;;;;5266368;28;20372;-29
2022/03/19 06:24:31;;;;;;;;;;;12.20;71.30;;;;;;5267774;28;20064;-29
2022/03/19 06:27:03;;;;;;;;;;;12.60;71.40;;;;;;5267641;28;19920;-34
2022/03/19 06:29:34;;;;;;;;;;;12.90;71.70;;;;;;5267604;28;19920;-39
2022/03/19 06:32:05;;;;;;;;;;;13.30;73.40;;;;;;5267322;28;20349;-29
2022/03/19 06:34:35;;;;;;;;;;;13.60;72.70;;;;;;5269579;28;20280;-31
2022/03/19 06:37:22;;;;;;;;;;;13.90;72.00;;;;;;5267727;28;19924;-28
2022/03/19 06:39:55;;;;;;;;;;;14.10;71.70;;;;;;5267525;28;19920;-29
2022/03/19 06:42:26;;;;;;;;;;;14.30;72.50;;;;;;5266595;28;19935;-30
2022/03/19 06:44:57;;;;;;;;;;;14.50;68.40;;;;;;5274080;28;19923;-36
2022/03/19 06:47:28;;;;;;;;;;;13.90;67.70;;;;;;5271379;28;19928;-31
2022/03/19 06:50:00;;;;;;;;;;;13.30;68.00;;;;;;5267291;28;19924;-33
2022/03/19 06:52:32;;;;;;;;;;;13.00;69.10;;;;;;5266972;28;19924;-33
2022/03/19 06:55:04;;;;;;;47.53;38.10;;;13.10;69.40;;;;;;5266200;28;20023;-29
2022/03/19 06:57:35;;;;;;;46.03;36.03;;;12.70;70.10;;;;;;5266216;28;20481;-32
2022/03/19 07:00:07;;;;;;;45.27;37.40;;;12.50;70.00;;;;;;5267638;28;20047;-31
2022/03/19 07:02:49;;;;;;;51.13;38.28;;;12.40;71.20;;;;;;5270198;28;20454;-32
2022/03/19 07:05:27;;;;;;;44.17;36.53;;;12.30;72.10;;;;;;5252484;28;20378;-30
2022/03/19 07:07:59;;;;;;;48.07;37.23;;;12.30;71.70;;;;;;5268953;28;20036;-32
2022/03/19 07:10:31;;;;;;;43.83;36.28;;;12.40;71.50;;;;;;5269854;28;20040;-34
2022/03/19 07:13:03;;;;;;;41.77;35.00;;;12.40;71.80;;;;;;5270079;28;20043;-29
2022/03/19 07:15:34;;;;;;;42.07;35.20;;;12.40;71.40;;;;;;5268343;28;20111;-29
2022/03/19 07:18:05;;;;;;;48.93;37.37;;;12.50;72.20;;;;;;5269769;28;20040;-30
2022/03/19 07:20:39;;;;;;;42.10;34.60;;;12.50;72.70;;;;;;5275646;28;20416;-30
2022/03/19 07:23:13;;;;;;;43.07;35.43;;;12.60;72.40;;;;;;5270425;28;20168;-28
2022/03/19 07:25:44;;;;;;;43.80;34.37;;;12.60;72.10;;;;;;5270609;28;20449;-32
2022/03/19 07:28:20;;;;;;;40.67;33.07;;;12.60;71.20;;;;;;5271872;28;20036;-34
2022/03/19 07:30:52;;;;;;;42.30;34.27;;;12.60;71.00;;;;;;5255286;28;20040;-30
2022/03/19 07:33:23;;;;;;;42.87;35.40;;;12.50;71.30;;;;;;5272152;28;20063;-34
2022/03/19 07:35:54;;;;;;;42.50;34.97;;;12.50;71.60;;;;;;5272411;28;20442;-30
2022/03/19 07:38:26;;;;;;;41.00;32.97;;;12.40;71.50;;;;;;5277214;28;20382;-37
2022/03/19 07:43:46;;;;;;;;;;;12.80;72.90;;;;;;5290650;28;19951;-33
2022/03/19 07:46:17;;;;;;;;;;;13.10;71.30;;;;;;5294317;28;19953;-34
2022/03/19 07:48:48;;;;;;;;;;;13.40;71.00;;;;;;5292927;28;19997;-31
2022/03/19 07:51:19;;;;;;;;;;;13.60;71.10;;;;;;5293468;28;20369;-32
2022/03/19 07:53:50;;;;;;;;;;;13.70;70.50;;;;;;5292349;28;19920;-34
2022/03/19 07:56:21;;;;;;;;;;;13.90;69.90;;;;;;5292788;28;19919;-33
2022/03/19 07:58:52;;;;;;;;;;;14.00;69.50;;;;;;5293759;28;20369;-36
2022/03/19 08:01:23;;;;;;;;;;;14.10;69.00;;;;;;5293415;28;19920;-34
2022/03/19 08:03:54;;;;;;;;;;;14.20;69.20;;;;;;5293530;28;19920;-30
2022/03/19 08:06:25;;;;;;;;;;;14.30;68.40;;;;;;5292479;28;19943;-29
2022/03/19 08:08:56;;;;;;;;;;;14.40;68.40;;;;;;5293479;28;19969;-32
2022/03/19 08:11:31;;;;;;;;;;;14.40;68.10;;;;;;5292411;28;19946;-30
2022/03/19 08:14:02;;;;;;;;;;;14.50;67.70;;;;;;5292048;28;20273;-30
2022/03/19 08:16:33;;;;;;;;;;;14.60;67.30;;;;;;5292137;28;19955;-33
2022/03/19 08:19:04;;;;;;;;;;;14.60;66.90;;;;;;5293249;28;20328;-29
2022/03/19 08:21:35;;;;;;;;;;;14.70;66.70;;;;;;5293247;28;19959;-28
2022/03/19 08:24:06;;;;;;;;;;;14.70;66.60;;;;;;5293148;28;20396;-39
2022/03/19 08:26:37;;;;;;;;;;;14.70;66.70;;;;;;5293574;28;19920;-28
2022/03/19 08:29:08;;;;;;;;;;;14.80;67.20;;;;;;5292877;28;19920;-29
2022/03/19 08:31:39;;;;;;;;;;;14.80;66.40;;;;;;5292871;28;20379;-30
2022/03/19 08:34:10;;;;;;;;;;;14.90;66.30;;;;;;5292972;28;19923;-29
2022/03/19 08:36:41;;;;;;;;;;;14.80;65.80;;;;;;5292865;28;19920;-32
2022/03/19 08:42:02;;;;;;;;;;;14.90;64.60;;;;;;5292839;28;19919;-37
2022/03/19 08:44:33;;;;;;;;;;;14.90;64.90;;;;;;5292897;28;19919;-31
2022/03/19 08:47:04;;;;;;;;;;;15.00;65.10;;;;;;5292541;28;20360;-32
2022/03/19 08:49:35;;;;;;;;;;;14.90;66.00;;;;;;5292058;28;19959;-34
2022/03/19 08:52:06;;;;;;;;;;;15.00;65.30;;;;;;5292497;28;19923;-30
2022/03/19 08:54:37;;;;;;;;;;;15.00;64.60;;;;;;5292876;28;20405;-30
2022/03/19 08:57:08;;;;;;;;;;;15.00;64.50;;;;;;5292564;28;19919;-36
2022/03/19 08:59:39;;;;;;;;;;;15.00;64.50;;;;;;5291128;28;20289;-28
2022/03/19 09:02:10;;;;;;;;;;;15.00;64.50;;;;;;5292037;28;19919;-31
2022/03/19 09:04:41;;;;;;;;;;;15.00;64.60;;;;;;5292476;28;19920;-28
2022/03/19 09:07:14;;;;;;;;;;;15.10;64.30;;;;;;5291143;28;19974;-35
2022/03/19 09:09:45;;;;;;;;;;;15.10;64.80;;;;;;5292235;28;19962;-29
2022/03/19 09:12:16;;;;;;;;;;;15.10;63.80;;;;;;5291980;28;19977;-29
2022/03/19 09:14:47;;;;;;;;;;;15.10;63.70;;;;;;5291852;28;20353;-32
2022/03/19 09:17:18;;;;;;;;;;;15.10;63.20;;;;;;5292084;28;19942;-32
2022/03/19 09:19:49;;;;;;;;;;;15.10;65.00;;;;;;5291941;28;19964;-34
2022/03/19 09:22:20;;;;;;;;;;;15.10;65.70;;;;;;5291772;28;20365;-29
2022/03/19 09:24:50;;;;;;;;;;;15.10;64.30;;;;;;5291894;28;19920;-31
2022/03/19 09:27:22;;;;;;;;;;;15.10;65.10;;;;;;5291909;28;19920;-29
2022/03/19 09:29:53;;;;;;;;;;;15.10;66.20;;;;;;5292143;28;19920;-35
2022/03/19 09:32:23;;;;;;;;;;;15.10;65.00;;;;;;5290633;28;20375;-33
2022/03/19 09:34:54;;;;;;;;;;;15.10;70.30;;;;;;5291406;28;20426;-32
2022/03/19 09:37:25;;;;;;;;;;;15.10;63.20;;;;;;5290182;28;19977;-34
2022/03/19 09:39:57;;;;;;;;;;;15.10;64.70;;;;;;5290386;28;20007;-30
2022/03/19 09:42:28;;;;;;;;;;;15.00;64.40;;;;;;5291616;28;19920;-31
2022/03/19 09:44:59;;;;;;;;;;;15.10;62.40;;;;;;5291547;28;19920;-30
2022/03/19 09:47:30;;;;;;;;;;;15.10;67.60;;;;;;5290113;28;20273;-34
2022/03/19 09:50:01;;;;;;;;;;;15.10;63.00;;;;;;5290326;28;19951;-29
2022/03/19 09:52:34;;;;;;;;;;;15.00;62.20;;;;;;5289787;28;19923;-30
2022/03/19 09:55:05;;;;;;;;;;;15.00;62.00;;;;;;5255926;28;19944;-35
2022/03/19 09:57:36;;;;;;;;;;;15.10;65.60;;;;;;5291322;28;19930;-30
2022/03/19 10:00:10;;;;;;;;;;;15.00;61.20;;;;;;5290207;28;21421;-31
2022/03/19 10:02:53;;;;;;;;;;;15.00;60.70;;;;;;5291198;28;19923;-34
2022/03/19 10:08:43;;;;;;;;;;;15.00;68.00;;;;;;5290659;28;20326;-31
2022/03/19 10:11:15;;;;;;;;;;;15.00;65.10;;;;;;5289975;28;19971;-32
2022/03/19 10:13:47;;;;;;;;;;;15.00;61.10;;;;;;5290975;28;19928;-32
2022/03/19 10:16:22;;;;;;;;;;;15.00;64.80;;;;;;5290941;28;19923;-38
2022/03/19 10:18:59;;;;;;;;;;;15.00;61.60;;;;;;5290848;28;20026;-31
2022/03/19 10:21:35;;;;;;;;;;;15.00;61.90;;;;;;5289669;28;20396;-36
2022/03/19 10:24:06;;;;;;;;;;;15.00;69.50;;;;;;5291374;28;19963;-29
2022/03/19 10:26:41;;;;;;;;;;;15.10;63.10;;;;;;5290587;28;19923;-28
2022/03/19 10:29:12;;;;;;;;;;;15.00;62.50;;;;;;5290889;28;19924;-29
2022/03/19 10:31:47;;;;;;;;;;;15.00;59.80;;;;;;5290584;28;19924;-29
2022/03/19 10:34:18;;;;;;;;;;;15.00;62.00;;;;;;5290849;28;19924;-29
2022/03/19 10:36:49;;;;;;;;;;;15.00;63.20;;;;;;5295056;28;19932;-32
2022/03/19 10:39:25;;;;;;;;;;;15.00;61.40;;;;;;5295040;28;19928;-33
2022/03/19 10:41:56;;;;;;;;;;;15.00;67.00;;;;;;5295333;28;20325;-29
2022/03/19 10:44:27;;;;;;;;;;;15.00;61.90;;;;;;5294985;28;19967;-31
2022/03/19 10:46:59;;;;;;;;;;;15.00;73.10;;;;;;5295104;28;19924;-31
2022/03/19 10:49:30;;;;;;;;;;;15.00;64.70;;;;;;5294640;28;19924;-29
2022/03/19 10:52:05;;;;;;;;;;;15.00;62.10;;;;;;5294788;28;19963;-30
2022/03/19 10:54:36;;;;;;;;;;;15.00;62.80;;;;;;5293819;28;19927;-29
2022/03/19 10:57:07;;;;;;;;;;;15.00;60.90;;;;;;5276774;28;19923;-35
2022/03/19 10:59:38;;;;;;;;;;;15.00;64.20;;;;;;5294872;27;19981;-31
2022/03/19 11:02:10;;;;;;;;;;;15.00;61.70;;;;;;5294771;28;19924;-32
2022/03/19 11:04:41;;;;;;;;;;;15.00;65.70;;;;;;5293481;28;19927;-34
2022/03/19 11:07:12;;;;;;;;;;;15.00;69.80;;;;;;5294059;28;20357;-29
2022/03/19 11:09:43;;;;;;;;;;;15.00;67.50;;;;;;5294419;28;19931;-33
2022/03/19 11:12:14;;;;;;;;;;;15.00;63.70;;;;;;5293115;28;20277;-28
2022/03/19 11:14:45;;;;;;;;;;;15.00;66.80;;;;;;5294719;28;19931;-30
2022/03/19 11:17:30;;;;;;;;;;;15.00;63.70;;;;;;5293133;28;19924;-31
2022/03/19 11:20:06;;;;;;;;;;;15.00;64.90;;;;;;5294482;28;19963;-33
2022/03/19 11:22:41;;;;;;;;;;;15.00;67.00;;;;;;5294495;28;20276;-29
2022/03/19 11:25:22;;;;;;;;;;;15.00;64.20;;;;;;5294288;27;19924;-31
2022/03/19 11:28:06;;;;;;;;;;;15.00;60.40;;;;;;5294322;28;19977;-29
2022/03/19 11:30:45;;;;;;;;;;;15.00;64.90;;;;;;5293062;28;20047;-31
2022/03/19 11:33:16;;;;;;;;;;;15.00;63.20;;;;;;5294242;28;20432;-36
2022/03/19 11:35:47;;;;;;;;;;;15.00;67.30;;;;;;5294132;28;20018;-30
2022/03/19 11:38:20;;;;;;;;;;;15.00;63.50;;;;;;5292980;28;19977;-37
2022/03/19 11:40:58;;;;;;;;;;;15.00;62.80;;;;;;5293770;28;19931;-35
2022/03/19 11:43:33;;;;;;;;;;;15.00;64.50;;;;;;5293451;28;20022;-32
2022/03/19 11:46:09;;;;;;;;;;;15.00;62.80;;;;;;5291946;28;19924;-34
2022/03/19 11:48:52;;;;;;;;;;;15.00;61.50;;;;;;5292231;28;19931;-32
2022/03/19 11:51:38;;;;;;;;;;;15.00;68.00;;;;;;5293504;28;19946;-28
2022/03/19 11:54:11;;;;;;;;;;;14.90;67.00;;;;;;5293790;27;19923;-30
2022/03/19 11:56:41;;;;;;;;;;;14.90;62.40;;;;;;5293707;28;20423;-30
2022/03/19 11:59:12;;;;;;;;;;;15.00;66.90;;;;;;5293862;28;20445;-31
2022/03/19 12:01:49;;;;;;;;;;;14.90;63.10;;;;;;5293606;28;20014;-33
2022/03/19 12:04:21;;;;;;;;;;;14.90;62.70;;;;;;5293523;28;19923;-30
2022/03/19 12:06:53;;;;;;;;;;;15.00;60.30;;;;;;5274899;28;20390;-31
2022/03/19 12:09:39;;;;;;;;;;;14.90;61.80;;;;;;5293399;28;19923;-34
2022/03/19 12:12:15;;;;;;;;;;;14.90;60.90;;;;;;5293182;28;20026;-37
2022/03/19 12:14:46;;;;;;;;;;;15.00;63.40;;;;;;5293300;28;20262;-37
2022/03/19 12:17:17;;;;;;;;;;;15.00;62.40;;;;;;5293090;28;19931;-34
2022/03/19 12:19:48;;;;;;;;;;;14.90;65.30;;;;;;5293201;28;20373;-32
2022/03/19 12:22:34;;;;;;;;;;;14.90;67.20;;;;;;5293245;28;19976;-29
2022/03/19 12:25:08;;;;;;;;;;;15.00;69.70;;;;;;5293516;28;19928;-30
2022/03/19 12:27:40;;;;;;;;;;;15.00;75.30;;;;;;5293216;28;19924;-31
2022/03/19 12:30:11;;;;;;;;;;;15.00;70.40;;;;;;5293003;28;19924;-30
2022/03/19 12:32:49;;;;;;;;;;;15.00;70.90;;;;;;5292160;28;19969;-28
2022/03/19 12:35:38;;;;;;;;;;;15.00;69.10;;;;;;5293138;28;19924;-30
2022/03/19 12:38:09;;;;;;;;;;;15.00;70.80;;;;;;5291546;28;19946;-32
2022/03/19 12:43:38;;;;;;;;;;;15.10;77.20;;;;;;5292253;28;19924;-31
2022/03/19 12:46:09;;;;;;;;;;;15.10;78.10;;;;;;5292954;28;19924;-29
2022/03/19 12:48:42;;;;;;;;;;;15.00;76.70;;;;;;5292617;28;19924;-28
2022/03/19 12:51:21;;;;;;;;;;;15.00;72.00;;;;;;5292225;28;20458;-31
2022/03/19 12:53:52;;;;;;;;;;;15.10;81.30;;;;;;5292973;28;19969;-29
2022/03/19 12:56:24;;;;;;;;;;;15.00;77.70;;;;;;5292835;28;19924;-29
2022/03/19 12:58:55;;;;;;;;;;;15.00;74.50;;;;;;5292187;28;19977;-31
2022/03/19 13:01:27;;;;;;;;;;;15.00;72.30;;;;;;5291199;28;20014;-30
2022/03/19 13:03:59;;;;;;;;;;;15.00;69.80;;;;;;5292090;28;19923;-29
2022/03/19 13:06:31;;;;;;;;;;;15.00;69.50;;;;;;5291068;28;19923;-31
2022/03/19 13:09:02;;;;;;;;;;;15.10;82.90;;;;;;5292618;28;19924;-35
2022/03/19 13:11:43;;;;;;;;;;;15.10;82.30;;;;;;5292226;28;20284;-29
2022/03/19 13:14:14;;;;;;;;;;;15.00;71.90;;;;;;5292376;28;19924;-37
2022/03/19 13:16:51;;;;;;;;;;;15.10;74.50;;;;;;5291853;28;19959;-29
2022/03/19 13:19:23;;;;;;;;;;;15.10;74.00;;;;;;5290922;28;20323;-32
2022/03/19 13:21:56;;;;;;;;;;;15.10;74.60;;;;;;5292043;28;19969;-29
2022/03/19 13:24:27;;;;;;;;;;;15.10;71.60;;;;;;5291970;28;20380;-33
2022/03/19 13:26:58;;;;;;;;;;;15.10;71.10;;;;;;5291914;28;20326;-31
2022/03/19 13:29:32;;;;;;;;;;;15.00;70.00;;;;;;5291466;28;19923;-29
2022/03/19 13:32:04;;;;;;;;;;;15.00;88.90;;;;;;5291644;28;19924;-37
2022/03/19 13:34:36;;;;;;;;;;;15.10;80.20;;;;;;5290505;28;19924;-34
2022/03/19 13:37:11;;;;;;;;;;;15.10;86.90;;;;;;5290295;28;19931;-34
2022/03/19 13:39:43;;;;;;;;;;;15.00;67.80;;;;;;5292038;28;19931;-29
2022/03/19 13:42:15;;;;;;;;;;;15.10;75.10;;;;;;5291485;28;19923;-31
2022/03/19 13:44:46;;;;;;;;;;;15.10;83.90;;;;;;5291818;28;20007;-29
2022/03/19 13:47:18;;;;;;;;;;;15.20;85.70;;;;;;5291602;28;19928;-29
2022/03/19 13:49:55;;;;;;;;;;;15.20;87.90;;;;;;5278022;28;19935;-34
2022/03/19 13:52:33;;;;;;;;;;;15.30;87.10;;;;;;5282346;28;19984;-29
2022/03/19 13:55:04;;;;;;;;;;;15.30;91.20;;;;;;5285012;28;20354;-37
2022/03/19 13:57:35;;;;;;;;;;;15.40;83.60;;;;;;5279092;28;19932;-29
2022/03/19 14:00:10;;;;;;;;;;;15.40;83.40;;;;;;5289211;28;20373;-29
2022/03/19 14:02:42;;;;;;;;;;;15.30;76.90;;;;;;5289193;28;19924;-29
2022/03/19 14:05:13;;;;;;;;;;;15.40;75.20;;;;;;5287505;28;20014;-31
2022/03/19 14:07:45;;;;;;;;;;;15.20;62.30;;;;;;5288981;28;20642;-36
2022/03/19 14:10:15;;;;;;;;;;;14.50;62.20;;;;;;5287964;28;19928;-38
2022/03/19 14:12:47;;;;;;;;;;;14.10;63.00;;;;;;5289019;28;19974;-35
2022/03/19 14:15:18;;;;;;;;;;;13.80;63.30;;;;;;5288976;28;20010;-36
2022/03/19 14:17:53;;;;;;;;;;;13.70;63.50;;;;;;5288687;28;20032;-33
2022/03/19 14:20:24;;;;;;;;;;;13.60;64.10;;;;;;5261673;28;19924;-28
2022/03/19 14:22:55;;;;;;;;;;;13.60;64.00;;;;;;5283413;28;19958;-30
2022/03/19 14:25:25;;;;;;;;;;;13.60;63.40;;;;;;5277790;28;19963;-36
2022/03/19 14:28:03;;;;;;;;;;;13.60;63.00;;;;;;5267871;28;19924;-30
2022/03/19 14:30:35;;;;;;;;;;;13.50;63.10;;;;;;5274906;28;20003;-31
2022/03/19 14:33:06;;;;;;;;;;;13.60;62.90;;;;;;5276809;28;19931;-33
2022/03/19 14:35:50;;;;;;;;;;;13.60;63.00;;;;;;5280821;28;19930;-33
2022/03/19 14:38:22;;;;;;;;;;;13.50;62.00;;;;;;5277501;28;19931;-35
2022/03/19 14:40:53;;;;;;;;;;;13.60;62.80;;;;;;5287698;28;19969;-30
2022/03/19 14:43:24;;;;;;;;;;;13.60;63.40;;;;;;5290589;28;19947;-30
2022/03/19 14:45:56;;;;;;;;;;;13.60;62.90;;;;;;5290033;28;19924;-30
2022/03/19 14:48:30;;;;;;;;;;;13.60;62.30;;;;;;5290839;28;20323;-29
2022/03/19 14:51:02;;;;;;;;;;;13.60;62.30;;;;;;5278269;28;20523;-35
2022/03/19 14:53:34;;;;;;;;;;;13.50;62.20;;;;;;5276268;28;19974;-33